KBMT/BMT METAR and TAF weather

Enter ICAO airport designator
Station Type Date Time Source
KBMT METAR 2021/01/22 06:35 UTC NOAA

KBMT 220635Z AUTO 00000KT 7SM SCT005 OVC010 19/18 A2990 RMK AO2 T01860181


Station Type Date Time Source
KBMT Decoded METAR 2021/01/22 06:35 UTC NOAA

Station name not available
Jan 22, 2021 - 01:35 AM EST / 2021.01.22 0635 UTC
Wind: Calm:0
Visibility: 7 mile(s):0
Sky conditions: overcast
Temperature: 65.5 F (18.6 C)
Dew Point: 64.6 F (18.1 C)
Relative Humidity: 96%
Pressure (altimeter): 29.9 in. Hg (1012 hPa)
ob: KBMT 220635Z AUTO 00000KT 7SM SCT005 OVC010 19/18 A2990 RMK AO2 T01860181
cycle: 6

Station Type Date Time Source
KBMT TAF UTC NOAA

Error!

Example: see airport list